Terminal Aerodrome Forecast
Issued by NWS

Home | Current Version | Previous Version | Graphics & Text | Print | Product List | Glossary On
Versions: 1 2 3 4 5 6 7 8 9 10 11 12 13 14 15 16 17
000
FTUS43 KABR 251502 AAD
TAFMBG
TAF AMD
KMBG 251502Z 2515/2612 01005KT 3SM -RA BR SCT007 BKN018 OVC024
     FM251800 35009KT P6SM SCT020 OVC026
     FM260000 34006KT P6SM SCT025 BKN040 BKN120=

USA.gov is the U.S. government's official web portal to all federal, state and local government web resources and services.